VIAR/ATQ METAR and TAF weather

Enter ICAO airport designator
Station Type Date Time Source
VIAR METAR 2018/12/19 10:00 UTC NOAA

VIAR 191000Z VRB02KT 3000 HZ NSC 21/06 Q1017 NOSIG


Station Type Date Time Source
VIAR Decoded METAR 2018/12/19 10:00 UTC NOAA

Amritsar, India (VIAR) 31-38N 074-52E 234M
Dec 19, 2018 - 05:00 AM EST / 2018.12.19 1000 UTC
Wind: Variable at 2 MPH (2 KT):0
Visibility: 1 mile(s):0
Weather: haze
Temperature: 69 F (21 C)
Dew Point: 42 F (6 C)
Relative Humidity: 37%
Pressure (altimeter): 30.03 in. Hg (1017 hPa)
ob: VIAR 191000Z VRB02KT 3000 HZ NSC 21/06 Q1017 NOSIG
cycle: 10

Station Type Date Time Source
VIAR TAF 2018/12/19 06:15 UTC NOAA

TAF VIAR 190500Z 1906/2012 29006KT 2500 HZ NSC
BECMG 1908/1910 32008KT 3500 HZ FEW040
BECMG 1915/1917 VRB02KT 2500 HZ BR
BECMG 1922/1924 00000KT 1500 BR NSC
BECMG 2001/2004 0600 MIFG
BECMG 2004/2006 VRB02KT 1500 BR FU
BECMG 2008/2010 32006KT 3500 HZ SCT100


Example: see airport list